Westville, Ohio
Current Conditions -  °F | °C
As of 7:56 PM on Tuesday 27 Jan 2015 (Local Time) from KSGH Reporting Station
Clear Clear  
Wind Chill: 14°   Ceiling: Unl
Heat Index: 14°   Visibility: 8mi
Dew Point: 10°   Wind: 3mph
Humidity: 84%   Direction: 180°S
Pressure: 30.2"   Gusts: NA
Location:  40.1°N, 83.83°W
Report Text: KSGH 280056Z AUTO 18003KT 8SM CLR M10/M12 A3020 RMK AO2 T11001122 SLP249
Loading
Personal Weather Stations






























Interactive Weather Map New forecast layout! Learn more

10-Day Weather Forecast

Advertisements
Track Severe Weather on mobile